CheckWX is a tool to help pilots better visualize weather data.  It is not intended as a substitute for an official pre-flight weather briefing.

16:30:25 UTC

Y50 METAR
Wautoma Municipal Airport
Wautoma, Wisconsin, USA
Current

2 hours ago

KY50 161456Z AUTO 14003KT 1/4SM FG OVC002 18/18 A3016 RMK AO2 SLP211 6//// T01830183 51008 $
Observed
Sep-16 @ 14:56 UTC
Wind
  • 140° at 3 KTS
Visibility
1/4 SM
Flight Rules
LIFR
Conditions
Fog
Cloud Levels
  • Overcast at 200' AGL
Temperature
18°C / 64°F
Dewpoint
18°C / 64°F
Humidity
100%
Altimeter
30.16" Hg
Pressure
1021.32 hPa
Previous

3 hours ago

KY50 161356Z AUTO 00000KT 1/4SM FG OVC002 18/18 A3016 RMK AO2 SLP209 T01780178 $
Observed
Sep-16 @ 13:56 UTC
Visibility
1/4 SM
Flight Rules
LIFR
Conditions
Fog
Cloud Levels
  • Overcast at 200' AGL
Temperature
18°C / 64°F
Dewpoint
18°C / 64°F
Humidity
100%
Altimeter
30.16" Hg
Pressure
1021.32 hPa
Previous

4 hours ago

KY50 161256Z AUTO 00000KT 1/4SM FG OVC002 17/17 A3015 RMK AO2 SLP205 T01720172 $
Observed
Sep-16 @ 12:56 UTC
Visibility
1/4 SM
Flight Rules
LIFR
Conditions
Fog
Cloud Levels
  • Overcast at 200' AGL
Temperature
17°C / 63°F
Dewpoint
17°C / 63°F
Humidity
100%
Altimeter
30.15" Hg
Pressure
1021.02 hPa